createdAt,value
2019-04-03T00:00:13.190Z,0.00
2019-04-03T00:01:13.156Z,0.00
2019-04-03T00:02:13.241Z,0.00
2019-04-03T00:03:13.155Z,0.00
2019-04-03T00:04:13.132Z,0.00
2019-04-03T00:05:13.161Z,0.00
2019-04-03T00:06:13.131Z,0.00
2019-04-03T00:07:13.202Z,0.00
2019-04-03T00:08:13.082Z,0.00
2019-04-03T00:09:13.188Z,0.00
2019-04-03T00:10:13.090Z,0.00
2019-04-03T00:11:13.048Z,0.00
2019-04-03T00:12:13.039Z,0.00
2019-04-03T00:13:13.748Z,0.00
2019-04-03T00:14:13.081Z,0.00
2019-04-03T00:15:13.652Z,0.00
2019-04-03T00:16:15.276Z,0.00
2019-04-03T00:17:15.031Z,0.00
2019-04-03T00:18:15.675Z,0.00
2019-04-03T00:19:12.960Z,0.00
2019-04-03T00:20:12.958Z,0.00
2019-04-03T00:21:12.940Z,0.00
2019-04-03T00:22:12.927Z,0.00
2019-04-03T00:23:12.942Z,0.00
2019-04-03T00:24:12.934Z,0.00
2019-04-03T00:25:12.905Z,0.00
2019-04-03T00:26:13.008Z,0.00
2019-04-03T00:27:12.909Z,0.00
2019-04-03T00:28:12.861Z,0.00
2019-04-03T00:29:13.032Z,0.00
2019-04-03T00:30:12.848Z,0.00
2019-04-03T00:31:12.960Z,0.00
2019-04-03T00:32:12.817Z,0.00
2019-04-03T00:33:12.812Z,0.00
2019-04-03T00:34:12.795Z,0.00
2019-04-03T00:35:12.833Z,0.00
2019-04-03T00:36:12.773Z,0.00
2019-04-03T00:37:12.763Z,0.00
2019-04-03T00:38:12.767Z,0.00
2019-04-03T00:39:12.741Z,0.00
2019-04-03T00:40:12.922Z,0.00
2019-04-03T00:41:12.721Z,0.00
2019-04-03T00:42:12.706Z,0.00
2019-04-03T00:43:12.699Z,0.00
2019-04-03T00:44:12.685Z,0.00
2019-04-03T00:45:12.693Z,0.00
2019-04-03T00:46:12.667Z,0.00
2019-04-03T00:47:12.654Z,0.00
2019-04-03T00:48:12.658Z,0.00
2019-04-03T00:49:12.631Z,0.00
2019-04-03T00:50:12.628Z,0.00
2019-04-03T00:51:12.610Z,0.00
2019-04-03T00:52:12.597Z,0.00
2019-04-03T00:53:12.588Z,0.00
2019-04-03T00:54:12.576Z,0.00
2019-04-03T00:55:12.574Z,0.00
2019-04-03T00:56:12.555Z,0.00
2019-04-03T00:57:12.551Z,0.00
2019-04-03T00:58:12.532Z,0.00
2019-04-03T00:59:12.523Z,0.00
2019-04-03T01:00:12.548Z,0.00
2019-04-03T01:01:12.580Z,0.00
2019-04-03T01:02:12.488Z,0.00
2019-04-03T01:03:12.508Z,0.00
2019-04-03T01:04:12.466Z,0.00
2019-04-03T01:05:12.456Z,0.00
2019-04-03T01:06:12.577Z,0.00
2019-04-03T01:07:12.454Z,0.00
2019-04-03T01:08:12.434Z,0.00
2019-04-03T01:09:12.416Z,0.00
2019-04-03T01:10:12.401Z,0.00
2019-04-03T01:11:12.398Z,0.00
2019-04-03T01:12:12.377Z,0.00
2019-04-03T01:13:12.371Z,0.00
2019-04-03T01:14:12.359Z,0.00
2019-04-03T01:15:12.357Z,0.00
2019-04-03T01:16:12.344Z,0.00
2019-04-03T01:17:12.324Z,0.00
2019-04-03T01:18:12.312Z,0.00
2019-04-03T01:19:12.302Z,0.00
2019-04-03T01:20:12.293Z,0.00
2019-04-03T01:21:12.297Z,0.00
2019-04-03T01:22:12.268Z,0.00
2019-04-03T01:23:12.257Z,0.00
2019-04-03T01:24:12.245Z,0.00
2019-04-03T01:25:12.235Z,0.00
2019-04-03T01:26:12.236Z,0.00
2019-04-03T01:27:12.262Z,0.00
2019-04-03T01:28:12.203Z,0.00
2019-04-03T01:29:12.734Z,0.00
2019-04-03T01:30:13.980Z,0.00
2019-04-03T01:31:14.210Z,0.00
2019-04-03T01:32:12.161Z,0.00
2019-04-03T01:33:12.229Z,0.00
2019-04-03T01:34:12.162Z,0.00
2019-04-03T01:35:12.208Z,0.00
2019-04-03T01:36:12.127Z,0.00
2019-04-03T01:37:12.102Z,0.00
2019-04-03T01:38:12.094Z,0.00
2019-04-03T01:39:12.082Z,0.00
2019-04-03T01:40:12.070Z,0.00
2019-04-03T01:41:12.069Z,0.00
2019-04-03T01:42:12.049Z,0.00
2019-04-03T01:43:12.037Z,0.00
2019-04-03T01:44:12.030Z,0.00
2019-04-03T01:45:12.015Z,0.00
2019-04-03T01:46:12.014Z,0.00
2019-04-03T01:47:12.071Z,0.00
2019-04-03T01:48:11.982Z,0.00
2019-04-03T01:49:11.975Z,0.00
2019-04-03T01:50:11.962Z,0.00
2019-04-03T01:51:11.964Z,0.00
2019-04-03T01:52:11.939Z,0.00
2019-04-03T01:53:11.928Z,0.00
2019-04-03T01:54:11.916Z,0.00
2019-04-03T01:55:11.909Z,0.00
2019-04-03T01:56:11.938Z,0.00
2019-04-03T01:57:11.883Z,0.00
2019-04-03T01:58:11.874Z,0.00
2019-04-03T01:59:11.869Z,0.00
2019-04-03T02:00:11.855Z,0.00
2019-04-03T02:01:11.839Z,0.00
2019-04-03T02:02:11.838Z,0.00
2019-04-03T02:03:11.926Z,0.00
2019-04-03T02:04:12.984Z,0.00
2019-04-03T02:05:12.730Z,0.00
2019-04-03T02:06:13.419Z,0.00
2019-04-03T02:07:14.098Z,0.00
2019-04-03T02:08:14.226Z,0.00
2019-04-03T02:09:11.757Z,0.00
2019-04-03T02:10:11.742Z,0.00
2019-04-03T02:11:11.917Z,0.00
2019-04-03T02:12:11.786Z,0.00
2019-04-03T02:13:11.710Z,0.00
2019-04-03T02:14:11.698Z,0.00
2019-04-03T02:15:11.781Z,0.00
2019-04-03T02:16:11.677Z,0.00
2019-04-03T02:17:11.675Z,0.00
2019-04-03T02:18:11.659Z,0.00
2019-04-03T02:19:11.644Z,0.00
2019-04-03T02:20:11.632Z,0.00
2019-04-03T02:21:11.622Z,0.00
2019-04-03T02:22:11.622Z,0.00
2019-04-03T02:23:11.779Z,0.00
2019-04-03T02:24:11.596Z,0.00
2019-04-03T02:25:11.580Z,0.00
2019-04-03T02:26:11.915Z,0.00
2019-04-03T02:27:11.566Z,0.00
2019-04-03T02:28:11.548Z,0.00
2019-04-03T02:29:11.537Z,0.00
2019-04-03T02:30:12.894Z,0.00
2019-04-03T02:31:11.547Z,0.00
2019-04-03T02:32:11.779Z,0.00
2019-04-03T02:33:11.500Z,0.00
2019-04-03T02:34:11.482Z,0.00
2019-04-03T02:35:11.507Z,0.00
2019-04-03T02:36:12.719Z,0.00
2019-04-03T02:37:11.461Z,0.00
2019-04-03T02:38:11.521Z,0.00
2019-04-03T02:39:11.664Z,0.00
2019-04-03T02:40:11.416Z,0.00
2019-04-03T02:41:11.413Z,0.00
2019-04-03T02:42:11.633Z,0.00
2019-04-03T02:43:13.467Z,0.00
2019-04-03T02:44:11.381Z,0.00
2019-04-03T02:45:11.366Z,0.00
2019-04-03T02:46:11.375Z,0.00
2019-04-03T02:47:11.620Z,0.00
2019-04-03T02:48:11.339Z,0.00
2019-04-03T02:49:11.324Z,0.00
2019-04-03T02:50:13.915Z,0.00
2019-04-03T02:51:11.302Z,0.00
2019-04-03T02:52:11.290Z,0.00
2019-04-03T02:53:11.384Z,0.00
2019-04-03T02:54:11.267Z,0.00
2019-04-03T02:55:11.334Z,0.00
2019-04-03T02:56:12.973Z,0.00
2019-04-03T02:57:11.455Z,0.00
2019-04-03T02:58:11.234Z,0.00
2019-04-03T02:59:11.214Z,0.00
2019-04-03T03:00:11.204Z,0.00
2019-04-03T03:01:11.192Z,0.00
2019-04-03T03:02:12.572Z,0.00
2019-04-03T03:03:11.227Z,0.00
2019-04-03T03:04:11.181Z,0.00
2019-04-03T03:05:11.354Z,0.00
2019-04-03T03:06:11.138Z,0.00
2019-04-03T03:07:11.207Z,0.00
2019-04-03T03:08:11.465Z,0.00
2019-04-03T03:09:13.515Z,0.00
2019-04-03T03:10:11.515Z,0.00
2019-04-03T03:11:11.091Z,0.00
2019-04-03T03:12:11.347Z,0.00
2019-04-03T03:13:11.073Z,0.00
2019-04-03T03:14:11.053Z,0.00
2019-04-03T03:15:12.331Z,0.00
2019-04-03T03:16:11.036Z,0.00
2019-04-03T03:17:11.239Z,0.00
2019-04-03T03:18:11.018Z,0.00
2019-04-03T03:19:11.000Z,0.00
2019-04-03T03:20:11.042Z,0.00
2019-04-03T03:21:12.827Z,0.00
2019-04-03T03:22:10.977Z,0.00
2019-04-03T03:23:10.982Z,0.00
2019-04-03T03:24:11.045Z,0.00
2019-04-03T03:25:10.943Z,0.00
2019-04-03T03:26:10.925Z,0.00
2019-04-03T03:27:11.244Z,0.00
2019-04-03T03:28:13.222Z,0.00
2019-04-03T03:29:17.631Z,0.00
2019-04-03T03:30:34.039Z,0.00
2019-04-03T03:31:11.980Z,0.00
2019-04-03T03:32:18.939Z,0.00
2019-04-03T03:33:26.529Z,0.00
2019-04-03T03:34:12.424Z,0.00
2019-04-03T03:35:15.021Z,0.00
2019-04-03T03:36:19.953Z,0.00
2019-04-03T03:37:12.831Z,0.00
2019-04-03T03:38:10.832Z,0.00
2019-04-03T03:39:11.657Z,0.00
2019-04-03T03:40:10.774Z,0.00
2019-04-03T03:41:10.762Z,0.00
2019-04-03T03:42:10.751Z,0.00
2019-04-03T03:43:10.739Z,0.00
2019-04-03T03:44:11.735Z,0.00
2019-04-03T03:45:11.087Z,0.00
2019-04-03T03:46:10.715Z,0.00
2019-04-03T03:47:10.698Z,0.00
2019-04-03T03:48:11.184Z,0.00
2019-04-03T03:49:10.693Z,0.00
2019-04-03T03:50:10.665Z,0.00
2019-04-03T03:51:10.658Z,0.00
2019-04-03T03:52:11.011Z,0.00
2019-04-03T03:53:12.104Z,0.00
2019-04-03T03:54:10.804Z,0.00
2019-04-03T03:55:10.611Z,0.00
2019-04-03T03:56:10.631Z,0.00
2019-04-03T03:57:10.592Z,0.00
2019-04-03T03:58:12.525Z,0.00
2019-04-03T03:59:10.575Z,0.00
2019-04-03T04:00:10.556Z,0.00
2019-04-03T04:01:10.544Z,0.00
2019-04-03T04:02:10.539Z,0.00
2019-04-03T04:03:11.657Z,0.00
2019-04-03T04:04:13.211Z,0.00
2019-04-03T04:05:11.835Z,0.00
2019-04-03T04:06:10.495Z,4.00
2019-04-03T04:07:10.485Z,4.00
2019-04-03T04:08:11.504Z,0.00
2019-04-03T04:09:10.475Z,0.00
2019-04-03T04:10:10.895Z,4.00
2019-04-03T04:11:10.435Z,0.00
2019-04-03T04:12:10.699Z,4.00
2019-04-03T04:13:13.332Z,4.00
2019-04-03T04:14:10.412Z,4.00
2019-04-03T04:15:10.394Z,4.00
2019-04-03T04:16:10.592Z,8.00
2019-04-03T04:17:15.500Z,8.00
2019-04-03T04:18:13.821Z,8.00
2019-04-03T04:19:10.383Z,8.00
2019-04-03T04:20:11.088Z,12.00
2019-04-03T04:21:11.738Z,12.00
2019-04-03T04:22:10.316Z,12.00
2019-04-03T04:23:10.600Z,16.00
2019-04-03T04:24:10.295Z,20.00
2019-04-03T04:25:10.293Z,20.00
2019-04-03T04:26:10.300Z,24.00
2019-04-03T04:27:10.264Z,28.00
2019-04-03T04:28:10.253Z,32.00
2019-04-03T04:29:11.322Z,36.00
2019-04-03T04:30:11.942Z,40.00
2019-04-03T04:31:12.286Z,48.00
2019-04-03T04:32:10.208Z,52.00
2019-04-03T04:33:10.198Z,60.00
2019-04-03T04:34:10.188Z,68.00
2019-04-03T04:35:11.183Z,76.00
2019-04-03T04:36:10.279Z,84.00
2019-04-03T04:37:10.155Z,100.00
2019-04-03T04:38:10.145Z,112.00
2019-04-03T04:39:10.133Z,124.00
2019-04-03T04:40:10.131Z,136.00
2019-04-03T04:41:10.330Z,152.00
2019-04-03T04:42:10.132Z,168.00
2019-04-03T04:43:10.091Z,184.00
2019-04-03T04:44:10.434Z,204.00
2019-04-03T04:45:11.811Z,220.00
2019-04-03T04:46:10.056Z,240.00
2019-04-03T04:47:10.045Z,264.00
2019-04-03T04:48:10.037Z,288.00
2019-04-03T04:49:10.028Z,308.00
2019-04-03T04:50:10.022Z,324.00
2019-04-03T04:51:10.003Z,340.00
2019-04-03T04:52:09.992Z,360.00
2019-04-03T04:53:09.983Z,380.00
2019-04-03T04:54:09.974Z,400.00
2019-04-03T04:55:09.971Z,424.00
2019-04-03T04:56:09.949Z,444.00
2019-04-03T04:57:09.937Z,472.00
2019-04-03T04:58:11.669Z,492.00
2019-04-03T04:59:09.915Z,512.00
2019-04-03T05:00:09.918Z,528.00
2019-04-03T05:01:10.088Z,544.00
2019-04-03T05:02:09.883Z,556.00
2019-04-03T05:03:09.871Z,568.00
2019-04-03T05:04:09.862Z,576.00
2019-04-03T05:05:09.860Z,584.00
2019-04-03T05:06:10.029Z,592.00
2019-04-03T05:07:09.829Z,600.00
2019-04-03T05:08:09.817Z,616.00
2019-04-03T05:09:09.966Z,640.00
2019-04-03T05:10:09.952Z,660.00
2019-04-03T05:11:09.786Z,684.00
2019-04-03T05:12:10.306Z,708.00
2019-04-03T05:13:09.766Z,724.00
2019-04-03T05:14:09.952Z,736.00
2019-04-03T05:15:09.875Z,752.00
2019-04-03T05:16:09.732Z,764.00
2019-04-03T05:17:09.797Z,768.00
2019-04-03T05:18:09.909Z,772.00
2019-04-03T05:19:15.861Z,780.00
2019-04-03T05:20:10.721Z,780.00
2019-04-03T05:21:09.945Z,780.00
2019-04-03T05:22:09.670Z,784.00
2019-04-03T05:23:09.655Z,788.00
2019-04-03T05:24:12.616Z,804.00
2019-04-03T05:25:09.791Z,820.00
2019-04-03T05:26:09.778Z,840.00
2019-04-03T05:27:09.614Z,856.00
2019-04-03T05:28:09.612Z,880.00
2019-04-03T05:29:09.664Z,904.00
2019-04-03T05:30:09.581Z,932.00
2019-04-03T05:31:09.838Z,964.00
2019-04-03T05:32:10.452Z,1000.00
2019-04-03T05:33:11.439Z,1036.00
2019-04-03T05:34:12.411Z,1076.00
2019-04-03T05:35:09.567Z,1120.00
2019-04-03T05:36:09.530Z,1168.00
2019-04-03T05:37:11.367Z,1220.00
2019-04-03T05:38:09.495Z,1268.00
2019-04-03T05:39:09.485Z,1324.00
2019-04-03T05:40:09.475Z,1380.00
2019-04-03T05:41:09.508Z,1440.00
2019-04-03T05:42:09.453Z,1496.00
2019-04-03T05:43:09.442Z,1560.00
2019-04-03T05:44:09.430Z,1628.00
2019-04-03T05:45:09.420Z,1696.00
2019-04-03T05:46:09.418Z,1768.00
2019-04-03T05:47:09.448Z,1848.00
2019-04-03T05:48:12.640Z,1900.00
2019-04-03T05:49:10.867Z,2044.00
2019-04-03T05:50:09.368Z,2144.00
2019-04-03T05:51:09.487Z,2244.00
2019-04-03T05:52:09.353Z,2340.00
2019-04-03T05:53:09.340Z,2440.00
2019-04-03T05:54:09.513Z,2584.00
2019-04-03T05:55:09.647Z,2776.00
2019-04-03T05:56:11.610Z,2924.00
2019-04-03T05:57:09.425Z,3044.00
2019-04-03T05:58:09.293Z,3176.00
2019-04-03T05:59:09.270Z,3392.00
2019-04-03T06:00:09.260Z,3576.00
2019-04-03T06:01:11.603Z,3644.00
2019-04-03T06:02:16.197Z,3908.00
2019-04-03T06:03:10.229Z,4008.00
2019-04-03T06:04:09.948Z,4152.00
2019-04-03T06:05:11.470Z,4124.00
2019-04-03T06:06:09.231Z,4156.00
2019-04-03T06:07:09.183Z,4236.00
2019-04-03T06:08:09.171Z,4224.00
2019-04-03T06:09:09.336Z,4040.00
2019-04-03T06:10:09.407Z,4332.00
2019-04-03T06:11:09.723Z,5108.00
2019-04-03T06:12:09.460Z,5772.00
2019-04-03T06:13:09.119Z,5540.00
2019-04-03T06:14:09.145Z,5580.00
2019-04-03T06:15:10.248Z,4564.00
2019-04-03T06:16:09.242Z,4336.00
2019-04-03T06:17:09.073Z,4092.00
2019-04-03T06:18:09.061Z,4024.00
2019-04-03T06:19:09.294Z,4128.00
2019-04-03T06:20:11.266Z,4036.00
2019-04-03T06:21:09.059Z,4272.00
2019-04-03T06:22:10.375Z,4384.00
2019-04-03T06:23:09.007Z,4492.00
2019-04-03T06:24:08.996Z,4648.00
2019-04-03T06:25:13.468Z,4532.00
2019-04-03T06:26:08.973Z,4604.00
2019-04-03T06:27:10.096Z,4580.00
2019-04-03T06:28:09.158Z,4596.00
2019-04-03T06:29:08.941Z,4644.00
2019-04-03T06:30:08.932Z,4968.00
2019-04-03T06:31:08.932Z,5124.00
2019-04-03T06:32:09.192Z,5300.00
2019-04-03T06:33:08.900Z,5572.00
2019-04-03T06:34:08.938Z,5836.00
2019-04-03T06:35:08.876Z,6040.00
2019-04-03T06:36:08.868Z,6140.00
2019-04-03T06:37:09.143Z,6544.00
2019-04-03T06:38:09.190Z,6684.00
2019-04-03T06:39:08.844Z,6704.00
2019-04-03T06:40:08.823Z,7220.00
2019-04-03T06:41:09.249Z,7944.00
2019-04-03T06:42:09.348Z,8268.00
2019-04-03T06:43:08.789Z,9444.00
2019-04-03T06:44:08.777Z,9624.00
2019-04-03T06:45:08.768Z,10928.00
2019-04-03T06:46:09.018Z,10524.00
2019-04-03T06:47:08.755Z,10156.00
2019-04-03T06:48:08.734Z,10660.00
2019-04-03T06:49:09.021Z,10072.00
2019-04-03T06:50:08.728Z,9696.00
2019-04-03T06:51:08.702Z,9728.00
2019-04-03T06:52:08.736Z,9952.00
2019-04-03T06:53:08.681Z,9272.00
2019-04-03T06:54:08.838Z,10272.00
2019-04-03T06:55:08.657Z,10560.00
2019-04-03T06:56:09.041Z,11072.00
2019-04-03T06:57:08.649Z,11672.00
2019-04-03T06:58:10.959Z,12288.00
2019-04-03T06:59:08.614Z,13504.00
2019-04-03T07:00:08.603Z,15040.00
2019-04-03T07:01:08.591Z,15200.00
2019-04-03T07:02:08.590Z,13040.00
2019-04-03T07:03:08.577Z,14656.00
2019-04-03T07:04:09.208Z,17120.00
2019-04-03T07:05:10.260Z,16960.00
2019-04-03T07:06:08.784Z,11912.00
2019-04-03T07:07:08.535Z,14080.00
2019-04-03T07:08:08.519Z,12460.00
2019-04-03T07:09:21.056Z,14304.00
2019-04-03T07:10:09.815Z,12604.00
2019-04-03T07:11:08.482Z,14592.00
2019-04-03T07:12:08.480Z,14496.00
2019-04-03T07:13:08.461Z,13236.00
2019-04-03T07:14:08.450Z,13036.00
2019-04-03T07:15:08.440Z,12108.00
2019-04-03T07:16:08.428Z,9184.00
2019-04-03T07:17:08.427Z,8136.00
2019-04-03T07:18:08.448Z,8344.00
2019-04-03T07:19:08.658Z,8868.00
2019-04-03T07:20:14.186Z,9960.00
2019-04-03T07:21:09.451Z,9524.00
2019-04-03T07:22:08.636Z,9792.00
2019-04-03T07:23:08.445Z,9696.00
2019-04-03T07:24:08.340Z,9796.00
2019-04-03T07:25:08.344Z,10560.00
2019-04-03T07:26:08.621Z,11100.00
2019-04-03T07:27:08.319Z,11984.00
2019-04-03T07:28:09.423Z,12540.00
2019-04-03T07:29:11.311Z,12164.00
2019-04-03T07:30:08.324Z,12976.00
2019-04-03T07:31:08.598Z,11984.00
2019-04-03T07:32:08.287Z,11316.00
2019-04-03T07:33:08.545Z,11744.00
2019-04-03T07:34:08.233Z,10992.00
2019-04-03T07:35:09.748Z,10492.00
2019-04-03T07:36:08.739Z,10784.00
2019-04-03T07:37:08.203Z,11796.00
2019-04-03T07:38:08.197Z,13816.00
2019-04-03T07:39:10.898Z,15168.00
2019-04-03T07:40:08.166Z,15040.00
2019-04-03T07:41:08.323Z,12544.00
2019-04-03T07:42:08.353Z,11076.00
2019-04-03T07:43:08.277Z,11548.00
2019-04-03T07:44:08.125Z,12464.00
2019-04-03T07:45:08.118Z,13592.00
2019-04-03T07:46:08.102Z,15616.00
2019-04-03T07:47:08.093Z,16128.00
2019-04-03T07:48:08.094Z,15072.00
2019-04-03T07:49:09.089Z,12432.00
2019-04-03T07:50:10.400Z,10544.00
2019-04-03T07:51:08.046Z,9336.00
2019-04-03T07:52:08.035Z,8392.00
2019-04-03T07:53:08.033Z,8364.00
2019-04-03T07:54:08.018Z,8196.00
2019-04-03T07:55:08.002Z,8052.00
2019-04-03T07:56:07.991Z,8000.00
2019-04-03T07:57:10.190Z,8052.00
2019-04-03T07:58:07.980Z,8176.00
2019-04-03T07:59:08.304Z,8092.00
2019-04-03T08:00:07.950Z,8240.00
2019-04-03T08:01:10.881Z,8376.00
2019-04-03T08:02:07.932Z,8216.00
2019-04-03T08:03:08.197Z,8312.00
2019-04-03T08:04:07.905Z,8352.00
2019-04-03T08:05:08.167Z,8404.00
2019-04-03T08:06:07.882Z,8708.00
2019-04-03T08:07:07.872Z,8560.00
2019-04-03T08:08:07.869Z,8440.00
2019-04-03T08:09:09.674Z,8340.00
2019-04-03T08:10:07.887Z,8172.00
2019-04-03T08:11:07.860Z,8056.00
2019-04-03T08:12:07.825Z,7924.00
2019-04-03T08:13:07.815Z,7820.00
2019-04-03T08:14:09.079Z,7684.00
2019-04-03T08:15:08.050Z,7672.00
2019-04-03T08:16:07.775Z,7700.00
2019-04-03T08:17:07.859Z,7664.00
2019-04-03T08:18:07.761Z,7652.00
2019-04-03T08:19:08.659Z,7672.00
2019-04-03T08:20:07.731Z,7632.00
2019-04-03T08:21:07.721Z,7440.00
2019-04-03T08:22:07.712Z,7284.00
2019-04-03T08:23:07.712Z,7264.00
2019-04-03T08:24:08.611Z,7356.00
2019-04-03T08:25:10.988Z,7372.00
2019-04-03T08:26:10.519Z,7424.00
2019-04-03T08:27:08.685Z,7360.00
2019-04-03T08:28:07.657Z,7312.00
2019-04-03T08:29:07.637Z,7416.00
2019-04-03T08:30:08.671Z,7356.00
2019-04-03T08:31:10.826Z,7340.00
2019-04-03T08:32:07.599Z,7296.00
2019-04-03T08:33:15.876Z,7296.00
2019-04-03T08:34:16.017Z,7216.00
2019-04-03T08:35:19.821Z,7248.00
2019-04-03T08:36:08.713Z,7228.00
2019-04-03T08:37:09.736Z,7220.00
2019-04-03T08:38:07.545Z,7216.00
2019-04-03T08:39:07.529Z,7316.00
2019-04-03T08:40:07.523Z,7336.00
2019-04-03T08:41:07.528Z,7312.00
2019-04-03T08:42:07.488Z,7276.00
2019-04-03T08:43:07.486Z,7308.00
2019-04-03T08:44:08.650Z,7316.00
2019-04-03T08:45:07.547Z,7288.00
2019-04-03T08:46:09.616Z,7296.00
2019-04-03T08:47:07.611Z,7272.00
2019-04-03T08:48:07.439Z,7236.00
2019-04-03T08:49:07.421Z,7196.00
2019-04-03T08:50:07.586Z,7160.00
2019-04-03T08:51:07.390Z,7128.00
2019-04-03T08:52:07.378Z,7092.00
2019-04-03T08:53:08.620Z,7052.00
2019-04-03T08:54:09.500Z,6984.00
2019-04-03T08:55:07.352Z,6928.00
2019-04-03T08:56:07.334Z,6904.00
2019-04-03T08:57:07.333Z,6896.00
2019-04-03T08:58:07.343Z,6884.00
2019-04-03T08:59:07.311Z,6852.00
2019-04-03T09:00:07.339Z,6828.00
2019-04-03T09:01:10.223Z,6812.00
2019-04-03T09:02:09.092Z,6792.00
2019-04-03T09:03:07.264Z,6804.00
2019-04-03T09:04:07.255Z,6816.00
2019-04-03T09:05:07.237Z,6792.00
2019-04-03T09:06:07.224Z,6788.00
2019-04-03T09:07:07.218Z,6760.00
2019-04-03T09:08:07.203Z,6736.00
2019-04-03T09:09:07.206Z,6712.00
2019-04-03T09:10:07.185Z,6640.00
2019-04-03T09:11:07.210Z,6488.00
2019-04-03T09:12:07.940Z,6336.00
2019-04-03T09:13:16.784Z,6288.00
2019-04-03T09:14:08.146Z,6188.00
2019-04-03T09:15:07.126Z,6084.00
2019-04-03T09:16:09.934Z,6024.00
2019-04-03T09:17:07.123Z,5988.00
2019-04-03T09:18:07.707Z,5992.00
2019-04-03T09:19:09.403Z,6116.00
2019-04-03T09:20:07.077Z,6288.00
2019-04-03T09:21:07.180Z,6312.00
2019-04-03T09:22:07.052Z,6324.00
2019-04-03T09:23:07.040Z,6376.00
2019-04-03T09:24:07.071Z,6424.00
2019-04-03T09:25:07.018Z,6420.00
2019-04-03T09:26:07.012Z,6432.00
2019-04-03T09:27:09.383Z,6516.00
2019-04-03T09:28:07.249Z,6588.00
2019-04-03T09:29:06.983Z,6624.00
2019-04-03T09:30:07.261Z,6652.00
2019-04-03T09:31:06.957Z,6656.00
2019-04-03T09:32:06.942Z,6624.00
2019-04-03T09:33:06.932Z,6604.00
2019-04-03T09:34:06.932Z,6576.00
2019-04-03T09:35:07.129Z,6480.00
2019-04-03T09:36:06.899Z,6388.00
2019-04-03T09:37:07.208Z,6184.00
2019-04-03T09:38:08.982Z,6100.00
2019-04-03T09:39:06.876Z,5992.00
2019-04-03T09:40:07.136Z,5964.00
2019-04-03T09:41:06.844Z,5924.00
2019-04-03T09:42:06.835Z,5948.00
2019-04-03T09:43:07.146Z,6056.00
2019-04-03T09:44:06.860Z,6152.00
2019-04-03T09:45:06.803Z,6304.00
2019-04-03T09:46:06.791Z,6360.00
2019-04-03T09:47:06.778Z,6416.00
2019-04-03T09:48:06.768Z,6464.00
2019-04-03T09:49:07.625Z,6492.00
2019-04-03T09:50:06.751Z,6492.00
2019-04-03T09:51:09.032Z,6516.00
2019-04-03T09:52:07.067Z,6496.00
2019-04-03T09:53:06.761Z,6472.00
2019-04-03T09:54:07.049Z,6444.00
2019-04-03T09:55:06.703Z,6428.00
2019-04-03T09:56:08.054Z,6440.00
2019-04-03T09:57:06.671Z,6444.00
2019-04-03T09:58:06.864Z,6496.00
2019-04-03T09:59:07.445Z,6524.00
2019-04-03T10:00:09.876Z,6552.00
2019-04-03T10:01:06.626Z,6552.00
2019-04-03T10:02:06.940Z,6548.00
2019-04-03T10:03:06.604Z,6600.00
2019-04-03T10:04:06.841Z,6556.00
2019-04-03T10:05:06.593Z,6552.00
2019-04-03T10:06:06.573Z,6564.00
2019-04-03T10:07:06.561Z,6580.00
2019-04-03T10:08:08.472Z,6576.00
2019-04-03T10:09:06.538Z,6564.00
2019-04-03T10:10:06.545Z,6540.00
2019-04-03T10:11:06.778Z,6524.00
2019-04-03T10:12:06.826Z,6500.00
2019-04-03T10:13:06.496Z,6536.00
2019-04-03T10:14:06.489Z,6536.00
2019-04-03T10:15:06.486Z,6524.00
2019-04-03T10:16:06.478Z,6528.00
2019-04-03T10:17:07.185Z,6536.00
2019-04-03T10:18:06.927Z,6536.00
2019-04-03T10:19:06.431Z,6308.00
2019-04-03T10:20:06.714Z,6336.00
2019-04-03T10:21:06.644Z,6292.00
2019-04-03T10:22:06.400Z,6300.00
2019-04-03T10:23:06.581Z,6284.00
2019-04-03T10:24:06.703Z,6336.00
2019-04-03T10:25:06.417Z,6372.00
2019-04-03T10:26:08.780Z,6380.00
2019-04-03T10:27:06.343Z,6396.00
2019-04-03T10:28:06.568Z,6416.00
2019-04-03T10:29:06.321Z,6412.00
2019-04-03T10:30:06.363Z,6328.00
2019-04-03T10:31:06.303Z,6308.00
2019-04-03T10:32:06.289Z,6256.00
2019-04-03T10:33:06.280Z,6356.00
2019-04-03T10:34:06.267Z,6252.00
2019-04-03T10:35:07.325Z,6252.00
2019-04-03T10:36:06.248Z,6236.00
2019-04-03T10:37:06.235Z,6324.00
2019-04-03T10:38:06.316Z,6296.00
2019-04-03T10:39:06.214Z,6212.00
2019-04-03T10:40:06.217Z,6032.00
2019-04-03T10:41:06.225Z,6116.00
2019-04-03T10:42:06.182Z,6296.00
2019-04-03T10:43:06.701Z,6276.00
2019-04-03T10:44:06.682Z,6304.00
2019-04-03T10:45:06.159Z,6376.00
2019-04-03T10:46:06.164Z,6288.00
2019-04-03T10:47:06.153Z,6256.00
2019-04-03T10:48:06.119Z,6448.00
2019-04-03T10:49:06.178Z,6216.00
2019-04-03T10:50:06.105Z,6384.00
2019-04-03T10:51:07.095Z,6144.00
2019-04-03T10:52:06.294Z,5896.00
2019-04-03T10:53:06.062Z,6240.00
2019-04-03T10:54:06.053Z,6068.00
2019-04-03T10:55:06.050Z,6172.00
2019-04-03T10:56:06.031Z,6344.00
2019-04-03T10:57:06.330Z,6360.00
2019-04-03T10:58:07.167Z,6252.00
2019-04-03T10:59:11.472Z,6096.00
2019-04-03T11:00:06.995Z,6260.00
2019-04-03T11:01:05.981Z,6332.00
2019-04-03T11:02:06.259Z,6104.00
2019-04-03T11:03:06.259Z,5960.00
2019-04-03T11:04:05.946Z,6048.00
2019-04-03T11:05:06.152Z,5832.00
2019-04-03T11:06:06.250Z,5828.00
2019-04-03T11:07:05.907Z,5880.00
2019-04-03T11:08:06.137Z,5916.00
2019-04-03T11:09:05.887Z,5860.00
2019-04-03T11:10:05.916Z,5824.00
2019-04-03T11:11:05.872Z,5896.00
2019-04-03T11:12:05.945Z,5940.00
2019-04-03T11:13:05.842Z,5964.00
2019-04-03T11:14:07.553Z,6256.00
2019-04-03T11:15:05.932Z,6224.00
2019-04-03T11:16:06.106Z,6200.00
2019-04-03T11:17:05.959Z,5996.00
2019-04-03T11:18:05.915Z,5960.00
2019-04-03T11:19:07.261Z,5904.00
2019-04-03T11:20:08.802Z,5972.00
2019-04-03T11:21:05.767Z,5988.00
2019-04-03T11:22:05.746Z,6056.00
2019-04-03T11:23:08.136Z,6144.00
2019-04-03T11:24:06.610Z,6032.00
2019-04-03T11:25:05.730Z,6276.00
2019-04-03T11:26:05.891Z,6160.00
2019-04-03T11:27:05.804Z,6220.00
2019-04-03T11:28:06.560Z,6196.00
2019-04-03T11:29:08.707Z,6124.00
2019-04-03T11:30:05.947Z,5964.00
2019-04-03T11:31:05.656Z,5776.00
2019-04-03T11:32:08.723Z,5756.00
2019-04-03T11:33:05.955Z,5468.00
2019-04-03T11:34:05.782Z,5492.00
2019-04-03T11:35:05.600Z,5676.00
2019-04-03T11:36:05.600Z,5736.00
2019-04-03T11:37:06.371Z,5848.00
2019-04-03T11:38:12.677Z,5664.00
2019-04-03T11:39:13.917Z,5680.00
2019-04-03T11:40:06.556Z,5780.00
2019-04-03T11:41:12.844Z,5832.00
2019-04-03T11:42:06.803Z,5836.00
2019-04-03T11:43:05.604Z,5876.00
2019-04-03T11:44:05.505Z,5908.00
2019-04-03T11:45:05.628Z,5832.00
2019-04-03T11:46:05.493Z,5944.00
2019-04-03T11:47:05.616Z,6020.00
2019-04-03T11:48:05.796Z,5936.00
2019-04-03T11:49:05.566Z,6060.00
2019-04-03T11:50:05.441Z,6120.00
2019-04-03T11:51:05.436Z,6224.00
2019-04-03T11:52:05.440Z,6344.00
2019-04-03T11:53:07.640Z,6304.00
2019-04-03T11:54:07.948Z,6244.00
2019-04-03T11:55:05.699Z,6144.00
2019-04-03T11:56:05.459Z,6208.00
2019-04-03T11:57:05.463Z,6112.00
2019-04-03T11:58:05.725Z,6160.00
2019-04-03T11:59:05.348Z,5968.00
2019-04-03T12:00:05.379Z,6000.00
2019-04-03T12:01:05.405Z,6048.00
2019-04-03T12:02:07.417Z,5936.00
2019-04-03T12:03:05.591Z,6048.00
2019-04-03T12:04:05.284Z,5992.00
2019-04-03T12:05:05.527Z,5848.00
2019-04-03T12:06:05.668Z,6024.00
2019-04-03T12:07:05.254Z,6188.00
2019-04-03T12:08:05.370Z,6156.00
2019-04-03T12:09:05.558Z,6084.00
2019-04-03T12:10:05.220Z,6044.00
2019-04-03T12:11:06.101Z,6076.00
2019-04-03T12:12:05.539Z,6072.00
2019-04-03T12:13:05.586Z,5944.00
2019-04-03T12:14:05.175Z,5972.00
2019-04-03T12:15:05.426Z,5828.00
2019-04-03T12:16:05.163Z,5860.00
2019-04-03T12:17:05.143Z,5636.00
2019-04-03T12:18:05.131Z,5392.00
2019-04-03T12:19:05.893Z,5648.00
2019-04-03T12:20:08.078Z,5528.00
2019-04-03T12:21:05.130Z,5680.00
2019-04-03T12:22:05.088Z,5608.00
2019-04-03T12:23:05.079Z,5316.00
2019-04-03T12:24:05.065Z,5588.00
2019-04-03T12:25:05.074Z,5528.00
2019-04-03T12:26:05.045Z,5676.00
2019-04-03T12:27:05.689Z,5536.00
2019-04-03T12:28:06.804Z,5660.00
2019-04-03T12:29:07.479Z,5512.00
2019-04-03T12:30:05.156Z,5660.00